createdAt,value
2019-01-09T00:01:10.244Z,94547.22
2019-01-09T00:03:39.943Z,94550.13
2019-01-09T00:06:09.546Z,94556.29
2019-01-09T00:08:39.143Z,94569.20
2019-01-09T00:11:08.878Z,94565.50
2019-01-09T00:13:38.675Z,94559.08
2019-01-09T00:16:08.289Z,94539.98
2019-01-09T00:18:37.751Z,94533.34
2019-01-09T00:21:07.424Z,94534.69
2019-01-09T00:23:37.120Z,94537.26
2019-01-09T00:26:06.822Z,94546.64
2019-01-09T00:28:36.533Z,94546.05
2019-01-09T00:31:06.157Z,94545.24
2019-01-09T00:33:35.741Z,94543.09
2019-01-09T00:36:05.290Z,94540.69
2019-01-09T00:38:34.962Z,94545.47
2019-01-09T00:41:04.571Z,94547.64
2019-01-09T00:43:34.278Z,94542.78
2019-01-09T00:46:03.922Z,94547.92
2019-01-09T00:48:33.602Z,94544.97
2019-01-09T00:51:03.110Z,94551.72
2019-01-09T00:53:32.824Z,94551.41
2019-01-09T00:56:02.431Z,94549.48
2019-01-09T00:58:31.969Z,94543.80
2019-01-09T01:01:01.658Z,94537.16
2019-01-09T01:04:39.969Z,94534.14
2019-01-09T01:07:54.546Z,94535.34
2019-01-09T01:11:07.968Z,94535.53
2019-01-09T01:14:09.728Z,94526.44
2019-01-09T01:17:15.068Z,94541.92
2019-01-09T01:20:09.736Z,94548.63
2019-01-09T01:23:22.171Z,94547.28
2019-01-09T01:26:32.530Z,94546.00
2019-01-09T01:29:42.495Z,94544.48
2019-01-09T01:32:41.452Z,94548.20
2019-01-09T01:36:09.986Z,94550.22
2019-01-09T01:39:04.730Z,94544.80
2019-01-09T01:41:47.922Z,94541.12
2019-01-09T01:44:52.796Z,94534.73
2019-01-09T01:48:01.473Z,94535.00
2019-01-09T01:51:29.904Z,94530.18
2019-01-09T01:54:07.246Z,94527.50
2019-01-09T01:57:42.085Z,94530.40
2019-01-09T02:00:48.871Z,94521.22
2019-01-09T02:03:56.438Z,94516.95
2019-01-09T02:07:02.638Z,94517.54
2019-01-09T02:10:15.508Z,94513.24
2019-01-09T02:13:31.760Z,94511.59
2019-01-09T02:16:28.050Z,94512.83
2019-01-09T02:19:25.283Z,94506.19
2019-01-09T02:22:29.815Z,94500.83
2019-01-09T02:25:25.183Z,94498.98
2019-01-09T02:28:36.129Z,94498.15
2019-01-09T02:31:51.046Z,94497.77
2019-01-09T02:34:20.627Z,94487.00
2019-01-09T02:36:50.138Z,94491.98
2019-01-09T02:39:19.855Z,94491.37
2019-01-09T02:41:49.474Z,94489.78
2019-01-09T02:44:19.080Z,94482.61
2019-01-09T02:46:48.747Z,94480.03
2019-01-09T02:49:18.298Z,94483.14
2019-01-09T02:51:47.907Z,94481.58
2019-01-09T02:54:17.673Z,94472.91
2019-01-09T02:56:47.336Z,94471.31
2019-01-09T02:59:17.134Z,94476.67
2019-01-09T03:01:46.877Z,94465.73
2019-01-09T03:04:16.454Z,94467.87
2019-01-09T03:06:46.067Z,94464.72
2019-01-09T03:09:15.830Z,94458.81
2019-01-09T03:11:45.423Z,94462.63
2019-01-09T03:14:15.092Z,94463.86
2019-01-09T03:16:44.665Z,94455.06
2019-01-09T03:19:14.323Z,94450.77
2019-01-09T03:21:43.964Z,94455.59
2019-01-09T03:24:13.643Z,94455.55
2019-01-09T03:26:43.419Z,94459.89
2019-01-09T03:29:12.236Z,94454.00
2019-01-09T03:31:41.799Z,94452.66
2019-01-09T03:34:11.474Z,94444.88
2019-01-09T03:36:41.096Z,94442.48
2019-01-09T03:39:10.683Z,94440.56
2019-01-09T03:41:40.383Z,94432.83
2019-01-09T03:44:09.934Z,94436.31
2019-01-09T03:46:39.607Z,94429.89
2019-01-09T03:49:09.216Z,94429.03
2019-01-09T03:51:38.929Z,94424.84
2019-01-09T03:54:08.668Z,94423.68
2019-01-09T03:56:38.338Z,94422.11
2019-01-09T03:59:08.090Z,94428.33
2019-01-09T04:01:37.624Z,94435.73
2019-01-09T04:04:07.379Z,94428.50
2019-01-09T04:06:41.846Z,94422.34
2019-01-09T04:09:08.328Z,94420.52
2019-01-09T04:11:38.013Z,94415.69
2019-01-09T04:14:07.581Z,94412.69
2019-01-09T04:16:37.260Z,94408.81
2019-01-09T04:19:06.833Z,94416.22
2019-01-09T04:21:36.578Z,94421.86
2019-01-09T04:24:06.313Z,94423.02
2019-01-09T04:26:35.894Z,94420.34
2019-01-09T04:29:05.622Z,94422.64
2019-01-09T04:31:35.327Z,94421.00
2019-01-09T04:34:04.832Z,94411.95
2019-01-09T04:36:34.636Z,94411.40
2019-01-09T04:39:05.305Z,94406.05
2019-01-09T04:41:34.838Z,94410.87
2019-01-09T04:44:04.601Z,94405.52
2019-01-09T04:46:34.216Z,94405.67
2019-01-09T04:49:03.803Z,94408.14
2019-01-09T04:51:33.407Z,94404.70
2019-01-09T04:54:03.138Z,94398.56
2019-01-09T04:56:32.835Z,94397.75
2019-01-09T04:59:02.404Z,94398.81
2019-01-09T05:01:32.162Z,94391.27
2019-01-09T05:04:01.682Z,94397.20
2019-01-09T05:06:31.365Z,94389.39
2019-01-09T05:09:01.096Z,94387.24
2019-01-09T05:11:30.795Z,94384.52
2019-01-09T05:14:00.401Z,94386.94
2019-01-09T05:16:30.008Z,94384.84
2019-01-09T05:18:59.730Z,94381.89
2019-01-09T05:21:29.289Z,94381.56
2019-01-09T05:23:58.950Z,94382.16
2019-01-09T05:26:28.658Z,94373.55
2019-01-09T05:28:58.212Z,94373.59
2019-01-09T05:31:27.836Z,94370.87
2019-01-09T05:33:57.427Z,94372.47
2019-01-09T05:36:27.097Z,94369.84
2019-01-09T05:38:56.690Z,94374.13
2019-01-09T05:41:26.296Z,94365.33
2019-01-09T05:43:55.907Z,94354.78
2019-01-09T05:46:25.523Z,94353.45
2019-01-09T05:48:55.234Z,94356.81
2019-01-09T05:51:24.944Z,94350.07
2019-01-09T05:53:54.545Z,94347.33
2019-01-09T05:56:24.161Z,94341.12
2019-01-09T05:58:53.744Z,94339.70
2019-01-09T06:01:23.238Z,94336.03
2019-01-09T06:03:53.077Z,94337.73
2019-01-09T06:06:22.756Z,94340.73
2019-01-09T06:08:52.263Z,94335.82
2019-01-09T06:11:21.918Z,94330.46
2019-01-09T06:13:52.412Z,94334.62
2019-01-09T06:16:21.914Z,94339.05
2019-01-09T06:18:51.548Z,94347.61
2019-01-09T06:21:21.136Z,94335.33
2019-01-09T06:23:50.682Z,94334.62
2019-01-09T06:26:20.278Z,94329.63
2019-01-09T06:28:49.954Z,94335.03
2019-01-09T06:31:19.598Z,94329.80
2019-01-09T06:33:49.197Z,94325.61
2019-01-09T06:36:18.909Z,94329.08
2019-01-09T06:38:48.524Z,94322.38
2019-01-09T06:41:18.128Z,94320.06
2019-01-09T06:43:47.674Z,94308.15
2019-01-09T06:46:17.273Z,94314.31
2019-01-09T06:48:46.855Z,94322.16
2019-01-09T06:51:16.490Z,94317.88
2019-01-09T06:53:46.255Z,94318.16
2019-01-09T06:56:16.127Z,94322.92
2019-01-09T06:58:45.698Z,94318.91
2019-01-09T07:01:15.404Z,94319.72
2019-01-09T07:03:45.041Z,94314.13
2019-01-09T07:06:14.628Z,94309.80
2019-01-09T07:08:44.333Z,94321.09
2019-01-09T07:11:14.019Z,94320.84
2019-01-09T07:13:44.597Z,94312.08
2019-01-09T07:16:14.290Z,94306.45
2019-01-09T07:18:45.436Z,94307.79
2019-01-09T07:21:15.040Z,94304.80
2019-01-09T07:23:44.539Z,94312.57
2019-01-09T07:26:13.949Z,94303.28
2019-01-09T07:28:43.523Z,94295.77
2019-01-09T07:31:13.125Z,94307.79
2019-01-09T07:33:42.864Z,94314.98
2019-01-09T07:36:12.475Z,94324.36
2019-01-09T07:38:42.096Z,94326.50
2019-01-09T07:41:11.620Z,94324.36
2019-01-09T07:43:41.179Z,94329.77
2019-01-09T07:46:10.844Z,94325.52
2019-01-09T07:48:40.403Z,94324.54
2019-01-09T07:51:09.948Z,94325.97
2019-01-09T07:53:39.533Z,94321.23
2019-01-09T07:56:09.136Z,94318.55
2019-01-09T07:58:38.648Z,94325.69
2019-01-09T08:01:08.279Z,94327.58
2019-01-09T08:03:37.872Z,94339.45
2019-01-09T08:06:07.623Z,94333.79
2019-01-09T08:08:37.146Z,94317.52
2019-01-09T08:11:06.658Z,94312.35
2019-01-09T08:13:36.295Z,94307.56
2019-01-09T08:16:05.998Z,94311.05
2019-01-09T08:18:35.532Z,94309.67
2019-01-09T08:21:05.807Z,94309.13
2019-01-09T08:23:35.667Z,94307.56
2019-01-09T08:26:05.244Z,94316.09
2019-01-09T08:28:34.772Z,94312.39
2019-01-09T08:31:04.282Z,94311.31
2019-01-09T08:33:33.861Z,94305.70
2019-01-09T08:36:03.511Z,94311.05
2019-01-09T08:38:33.001Z,94314.57
2019-01-09T08:41:02.623Z,94312.93
2019-01-09T08:43:32.318Z,94316.45
2019-01-09T08:46:01.938Z,94317.25
2019-01-09T08:48:31.536Z,94316.41
2019-01-09T08:51:01.159Z,94328.42
2019-01-09T08:53:30.625Z,94318.59
2019-01-09T08:56:00.159Z,94301.72
2019-01-09T08:58:29.753Z,94292.83
2019-01-09T09:00:59.267Z,94304.04
2019-01-09T09:03:28.890Z,94310.83
2019-01-09T09:05:58.449Z,94313.73
2019-01-09T09:08:28.001Z,94301.63
2019-01-09T09:10:57.610Z,94297.30
2019-01-09T09:13:38.048Z,94298.45
2019-01-09T09:16:11.567Z,94293.01
2019-01-09T09:18:41.489Z,94286.76
2019-01-09T09:21:11.058Z,94285.99
2019-01-09T09:23:40.607Z,94274.48
2019-01-09T09:26:10.095Z,94271.49
2019-01-09T09:28:39.695Z,94276.94
2019-01-09T09:31:09.321Z,94278.50
2019-01-09T09:33:38.854Z,94265.11
2019-01-09T09:36:08.453Z,94250.59
2019-01-09T09:38:38.067Z,94255.95
2019-01-09T09:41:07.751Z,94251.84
2019-01-09T09:43:37.294Z,94249.21
2019-01-09T09:46:06.968Z,94248.90
2019-01-09T09:48:36.692Z,94245.50
2019-01-09T09:51:06.394Z,94242.75
2019-01-09T09:53:36.008Z,94245.81
2019-01-09T09:56:05.621Z,94243.89
2019-01-09T09:58:35.330Z,94235.86
2019-01-09T10:01:04.971Z,94238.27
2019-01-09T10:03:34.548Z,94232.64
2019-01-09T10:06:04.091Z,94231.08
2019-01-09T10:08:33.656Z,94225.23
2019-01-09T10:11:03.260Z,94223.72
2019-01-09T10:13:32.948Z,94227.24
2019-01-09T10:16:02.576Z,94222.34
2019-01-09T10:18:32.193Z,94220.55
2019-01-09T10:21:01.664Z,94216.61
2019-01-09T10:23:31.430Z,94218.75
2019-01-09T10:26:01.005Z,94218.27
2019-01-09T10:28:30.491Z,94219.06
2019-01-09T10:31:00.031Z,94219.29
2019-01-09T10:33:29.713Z,94219.12
2019-01-09T10:35:59.311Z,94215.27
2019-01-09T10:38:28.881Z,94213.44
2019-01-09T10:40:58.471Z,94208.65
2019-01-09T10:43:28.164Z,94203.03
2019-01-09T10:45:57.779Z,94195.30
2019-01-09T10:48:27.494Z,94200.39
2019-01-09T10:50:57.093Z,94187.98
2019-01-09T10:53:26.708Z,94181.62
2019-01-09T10:55:56.308Z,94181.13
2019-01-09T10:58:25.892Z,94176.84
2019-01-09T11:00:56.023Z,94170.41
2019-01-09T11:03:25.781Z,94168.80
2019-01-09T11:05:55.366Z,94163.41
2019-01-09T11:08:24.843Z,94163.64
2019-01-09T11:10:54.458Z,94155.52
2019-01-09T11:13:24.092Z,94150.20
2019-01-09T11:15:53.839Z,94146.69
2019-01-09T11:18:23.754Z,94146.69
2019-01-09T11:20:53.275Z,94137.42
2019-01-09T11:23:22.891Z,94132.36
2019-01-09T11:25:52.432Z,94122.48
2019-01-09T11:28:22.012Z,94114.71
2019-01-09T11:30:51.648Z,94106.07
2019-01-09T11:33:21.271Z,94100.48
2019-01-09T11:35:50.826Z,94100.21
2019-01-09T11:38:20.381Z,94096.48
2019-01-09T11:40:49.981Z,94089.53
2019-01-09T11:43:19.575Z,94082.29
2019-01-09T11:45:49.096Z,94079.91
2019-01-09T11:48:18.913Z,94077.23
2019-01-09T11:50:48.693Z,94069.97
2019-01-09T11:53:18.248Z,94068.05
2019-01-09T11:55:47.737Z,94058.95
2019-01-09T11:58:17.647Z,94057.60
2019-01-09T12:00:47.362Z,94054.30
2019-01-09T12:03:16.875Z,94050.10
2019-01-09T12:05:46.424Z,94047.95
2019-01-09T12:08:16.018Z,94048.43
2019-01-09T12:10:45.631Z,94046.05
2019-01-09T12:13:15.103Z,94039.35
2019-01-09T12:15:44.562Z,94043.94
2019-01-09T12:18:14.113Z,94038.22
2019-01-09T12:20:43.717Z,94033.45
2019-01-09T12:23:13.311Z,94027.56
2019-01-09T12:25:42.807Z,94025.89
2019-01-09T12:28:12.540Z,94018.98
2019-01-09T12:30:42.235Z,94013.60
2019-01-09T12:33:11.758Z,94003.92
2019-01-09T12:35:41.352Z,94005.80
2019-01-09T12:38:10.977Z,94007.20
2019-01-09T12:40:40.599Z,94008.55
2019-01-09T12:43:10.090Z,94003.27
2019-01-09T12:45:39.588Z,93999.10
2019-01-09T12:48:09.209Z,93996.19
2019-01-09T12:50:38.814Z,93992.41
2019-01-09T12:53:08.405Z,93988.63
2019-01-09T12:55:37.949Z,93978.63
2019-01-09T12:58:07.544Z,93970.38
2019-01-09T13:00:37.026Z,93974.63
2019-01-09T13:03:06.660Z,93973.05
2019-01-09T13:05:36.409Z,93972.81
2019-01-09T13:08:05.940Z,93981.93
2019-01-09T13:10:35.513Z,93977.41
2019-01-09T13:13:05.097Z,93970.14
2019-01-09T13:15:34.941Z,93971.98
2019-01-09T13:18:05.405Z,93979.01
2019-01-09T13:20:35.063Z,93976.39
2019-01-09T13:23:04.742Z,93963.47
2019-01-09T13:25:34.466Z,93961.86
2019-01-09T13:28:04.178Z,93976.09
2019-01-09T13:30:33.756Z,93974.22
2019-01-09T13:33:03.493Z,93980.14
2019-01-09T13:35:33.230Z,93973.66
2019-01-09T13:38:02.817Z,93972.64
2019-01-09T13:40:34.294Z,93977.91
2019-01-09T13:43:03.631Z,93965.34
2019-01-09T13:45:33.284Z,93972.55
2019-01-09T13:48:02.885Z,93969.84
2019-01-09T13:50:32.649Z,93966.39
2019-01-09T13:53:02.242Z,93961.12
2019-01-09T13:55:32.580Z,93960.64
2019-01-09T13:58:02.120Z,93952.06
2019-01-09T14:00:31.718Z,93950.51
2019-01-09T14:03:01.676Z,93945.92
2019-01-09T14:05:31.604Z,93946.19
2019-01-09T14:08:01.224Z,93942.63
2019-01-09T14:10:30.970Z,93934.94
2019-01-09T14:13:00.556Z,93932.74
2019-01-09T14:15:30.153Z,93934.91
2019-01-09T14:17:59.745Z,93936.25
2019-01-09T14:20:29.493Z,93931.41
2019-01-09T14:22:59.162Z,93921.97
2019-01-09T14:25:28.880Z,93921.75
2019-01-09T14:27:58.621Z,93922.53
2019-01-09T14:30:29.421Z,93916.13
2019-01-09T14:32:59.122Z,93919.85
2019-01-09T14:35:28.852Z,93920.16
2019-01-09T14:37:58.648Z,93918.55
2019-01-09T14:40:28.392Z,93910.50
2019-01-09T14:42:58.073Z,93908.63
2019-01-09T14:45:27.882Z,93915.34
2019-01-09T14:47:57.596Z,93906.80
2019-01-09T14:50:27.321Z,93901.95
2019-01-09T14:52:56.949Z,93904.61
2019-01-09T14:55:26.642Z,93905.95
2019-01-09T14:57:56.252Z,93904.08
2019-01-09T15:00:27.573Z,93904.37
2019-01-09T15:02:57.224Z,93898.69
2019-01-09T15:05:26.918Z,93900.59
2019-01-09T15:07:56.614Z,93909.14
2019-01-09T15:10:28.359Z,93906.73
2019-01-09T15:12:58.115Z,93901.88
2019-01-09T15:15:27.797Z,93902.95
2019-01-09T15:17:57.562Z,93900.33
2019-01-09T15:20:27.342Z,93900.03
2019-01-09T15:22:56.958Z,93900.03
2019-01-09T15:25:26.644Z,93895.72
2019-01-09T15:27:56.343Z,93891.94
2019-01-09T15:30:30.712Z,93898.91
2019-01-09T15:33:00.384Z,93901.34
2019-01-09T15:35:30.028Z,93901.91
2019-01-09T15:37:59.798Z,93897.89
2019-01-09T15:40:30.742Z,93910.19
2019-01-09T15:43:00.369Z,93907.69
2019-01-09T15:45:30.093Z,93902.60
2019-01-09T15:47:59.762Z,93908.77
2019-01-09T15:50:29.722Z,93909.36
2019-01-09T15:52:59.478Z,93904.31
2019-01-09T15:55:29.080Z,93903.22
2019-01-09T15:57:58.716Z,93904.27
2019-01-09T16:00:31.040Z,93897.03
2019-01-09T16:03:00.853Z,93894.11
2019-01-09T16:05:30.502Z,93898.64
2019-01-09T16:08:00.142Z,93892.42
2019-01-09T16:10:29.831Z,93882.45
2019-01-09T16:12:59.540Z,93883.59
2019-01-09T16:15:29.163Z,93880.05
2019-01-09T16:17:58.694Z,93876.62
2019-01-09T16:20:28.308Z,93867.97
2019-01-09T16:22:58.096Z,93866.58
2019-01-09T16:25:27.585Z,93863.95
2019-01-09T16:27:57.300Z,93860.45
2019-01-09T16:30:46.886Z,93853.78
2019-01-09T16:33:16.497Z,93852.98
2019-01-09T16:35:46.184Z,93858.01
2019-01-09T16:38:15.919Z,93848.91
2019-01-09T16:40:45.626Z,93845.59
2019-01-09T16:43:15.229Z,93844.00
2019-01-09T16:45:44.930Z,93846.71
2019-01-09T16:48:14.658Z,93839.21
2019-01-09T16:50:44.267Z,93832.27
2019-01-09T16:53:14.186Z,93835.22
2019-01-09T16:55:43.910Z,93827.80
2019-01-09T16:58:13.596Z,93828.59
2019-01-09T17:00:43.238Z,93827.48
2019-01-09T17:03:12.892Z,93826.70
2019-01-09T17:05:42.625Z,93822.41
2019-01-09T17:08:12.263Z,93817.86
2019-01-09T17:10:43.041Z,93817.64
2019-01-09T17:13:12.795Z,93817.11
2019-01-09T17:15:42.496Z,93815.23
2019-01-09T17:18:12.269Z,93803.95
2019-01-09T17:20:41.909Z,93801.79
2019-01-09T17:23:11.652Z,93801.25
2019-01-09T17:25:41.325Z,93799.91
2019-01-09T17:28:11.190Z,93800.91
2019-01-09T17:30:40.958Z,93799.41
2019-01-09T17:33:10.559Z,93796.17
2019-01-09T17:35:40.278Z,93787.33
2019-01-09T17:38:10.036Z,93784.38
2019-01-09T17:40:41.164Z,93787.89
2019-01-09T17:43:11.046Z,93783.94
2019-01-09T17:45:40.754Z,93787.16
2019-01-09T17:48:10.469Z,93785.77
2019-01-09T17:50:40.483Z,93782.88
2019-01-09T17:53:10.109Z,93786.59
2019-01-09T17:55:39.803Z,93786.64
2019-01-09T17:58:09.318Z,93783.87
2019-01-09T18:00:41.379Z,93781.23
2019-01-09T18:03:11.265Z,93772.94
2019-01-09T18:05:41.753Z,93775.05
2019-01-09T18:08:14.582Z,93775.30
2019-01-09T18:10:49.947Z,93771.55
2019-01-09T18:13:15.816Z,93765.94
2019-01-09T18:15:45.381Z,93771.02
2019-01-09T18:18:15.116Z,93769.12
2019-01-09T18:20:44.688Z,93767.55
2019-01-09T18:23:14.619Z,93774.74
2019-01-09T18:25:44.310Z,93766.44
2019-01-09T18:28:13.929Z,93762.41
2019-01-09T18:31:22.752Z,93767.80
2019-01-09T18:34:12.875Z,93766.23
2019-01-09T18:37:38.767Z,93767.80
2019-01-09T18:40:58.737Z,93760.59
2019-01-09T18:43:51.380Z,93764.56
2019-01-09T18:47:10.658Z,93762.77
2019-01-09T18:50:32.938Z,93778.34
2019-01-09T18:53:27.538Z,93770.30
2019-01-09T18:55:57.263Z,93767.63
2019-01-09T18:58:26.896Z,93768.69
2019-01-09T19:00:56.498Z,93768.15
2019-01-09T19:03:26.163Z,93768.73
2019-01-09T19:05:56.118Z,93768.75
2019-01-09T19:08:25.969Z,93762.30
2019-01-09T19:10:55.559Z,93762.57
2019-01-09T19:13:25.312Z,93760.67
2019-01-09T19:15:55.079Z,93760.41
2019-01-09T19:18:25.041Z,93756.66
2019-01-09T19:20:54.717Z,93760.42
2019-01-09T19:23:24.402Z,93761.21
2019-01-09T19:25:53.997Z,93759.85
2019-01-09T19:28:23.696Z,93762.77
2019-01-09T19:30:53.325Z,93760.92
2019-01-09T19:33:22.923Z,93762.55
2019-01-09T19:35:52.619Z,93760.94
2019-01-09T19:38:22.311Z,93758.77
2019-01-09T19:40:52.057Z,93751.80
2019-01-09T19:43:21.744Z,93752.89
2019-01-09T19:45:51.389Z,93750.19
2019-01-09T19:48:21.057Z,93751.80
2019-01-09T19:50:51.134Z,93746.41
2019-01-09T19:53:20.795Z,93745.90
2019-01-09T19:55:50.452Z,93749.39
2019-01-09T19:58:20.213Z,93752.84
2019-01-09T20:00:49.749Z,93750.44
2019-01-09T20:03:19.433Z,93755.77
2019-01-09T20:05:49.146Z,93754.41
2019-01-09T20:08:18.916Z,93758.98
2019-01-09T20:10:48.720Z,93759.81
2019-01-09T20:13:18.223Z,93758.47
2019-01-09T20:15:47.894Z,93753.36
2019-01-09T20:18:17.515Z,93756.05
2019-01-09T20:20:47.309Z,93757.06
2019-01-09T20:23:16.943Z,93758.41
2019-01-09T20:25:46.647Z,93753.90
2019-01-09T20:28:16.365Z,93756.05
2019-01-09T20:30:46.202Z,93753.32
2019-01-09T20:33:15.898Z,93765.61
2019-01-09T20:35:45.619Z,93761.35
2019-01-09T20:38:15.220Z,93760.25
2019-01-09T20:40:44.862Z,93757.02
2019-01-09T20:43:14.422Z,93756.73
2019-01-09T20:45:44.183Z,93767.20
2019-01-09T20:48:14.052Z,93761.06
2019-01-09T20:50:43.834Z,93767.44
2019-01-09T20:53:13.560Z,93766.66
2019-01-09T20:55:43.410Z,93770.95
2019-01-09T20:58:13.207Z,93759.70
2019-01-09T21:00:42.941Z,93769.10
2019-01-09T21:03:13.579Z,93762.69
2019-01-09T21:05:45.526Z,93763.20
2019-01-09T21:08:15.185Z,93752.49
2019-01-09T21:10:44.796Z,93761.06
2019-01-09T21:13:14.769Z,93763.98
2019-01-09T21:15:44.583Z,93767.17
2019-01-09T21:18:14.239Z,93769.83
2019-01-09T21:20:43.880Z,93763.94
2019-01-09T21:23:13.697Z,93764.77
2019-01-09T21:25:43.297Z,93755.44
2019-01-09T21:28:13.059Z,93749.28
2019-01-09T21:30:42.618Z,93756.52
2019-01-09T21:33:12.671Z,93752.73
2019-01-09T21:35:42.359Z,93744.46
2019-01-09T21:38:12.035Z,93746.60
2019-01-09T21:40:41.659Z,93744.46
2019-01-09T21:43:11.358Z,93740.70
2019-01-09T21:45:41.060Z,93745.02
2019-01-09T21:48:10.777Z,93745.27
2019-01-09T21:50:40.481Z,93747.14
2019-01-09T21:53:10.239Z,93751.20
2019-01-09T21:55:40.006Z,93756.53
2019-01-09T21:58:09.638Z,93749.04
2019-01-09T22:00:39.394Z,93749.81
2019-01-09T22:03:09.194Z,93753.83
2019-01-09T22:05:38.956Z,93749.52
2019-01-09T22:08:08.575Z,93747.92
2019-01-09T22:10:38.513Z,93745.23
2019-01-09T22:13:08.854Z,93750.64
2019-01-09T22:15:38.507Z,93746.85
2019-01-09T22:18:08.225Z,93744.16
2019-01-09T22:20:37.858Z,93749.52
2019-01-09T22:23:07.652Z,93751.67
2019-01-09T22:25:37.288Z,93752.72
2019-01-09T22:28:06.964Z,93748.39
2019-01-09T22:30:36.708Z,93753.83
2019-01-09T22:33:06.483Z,93752.20
2019-01-09T22:35:41.364Z,93751.67
2019-01-09T22:38:07.859Z,93753.01
2019-01-09T22:40:37.595Z,93749.21
2019-01-09T22:43:07.380Z,93751.89
2019-01-09T22:45:36.997Z,93751.86
2019-01-09T22:48:06.701Z,93758.56
2019-01-09T22:50:36.332Z,93759.95
2019-01-09T22:53:06.051Z,93756.52
2019-01-09T22:55:35.647Z,93760.24
2019-01-09T22:58:05.344Z,93758.39
2019-01-09T23:01:08.596Z,93760.22
2019-01-09T23:03:58.201Z,93768.78
2019-01-09T23:06:37.378Z,93767.47
2019-01-09T23:09:39.352Z,93771.24
2019-01-09T23:12:08.911Z,93775.64
2019-01-09T23:14:38.316Z,93774.50
2019-01-09T23:17:07.821Z,93769.92
2019-01-09T23:19:37.336Z,93767.25
2019-01-09T23:22:06.805Z,93763.04
2019-01-09T23:24:36.471Z,93755.64
2019-01-09T23:27:06.043Z,93750.05
2019-01-09T23:29:35.525Z,93759.70
2019-01-09T23:32:05.057Z,93756.80
2019-01-09T23:34:34.570Z,93762.22
2019-01-09T23:37:04.030Z,93756.59
2019-01-09T23:39:33.588Z,93758.51
2019-01-09T23:42:03.088Z,93754.22
2019-01-09T23:44:32.687Z,93751.25
2019-01-09T23:47:02.196Z,93755.01
2019-01-09T23:49:31.703Z,93761.97
2019-01-09T23:52:01.276Z,93758.77
2019-01-09T23:54:30.817Z,93759.09
2019-01-09T23:57:00.341Z,93764.13
2019-01-09T23:59:29.889Z,93755.56
